Time;durP1;ratioP1;P1;durP2;ratioP2;P2;SDS_P1;SDS_P2;PMS_P1;PMS_P2;Temp;Humidity;BMP_temperature;BMP_pressure;BME280_temperature;BME280_humidity;BME280_pressure;Samples;Min_cycle;Max_cycle;Signal;HPM_P1;HPM_P2
2022/08/05 00:00:16;;;;;;;2.60;0.75;;;18.50;99.90;;;;;;5069684;28;20037;-82
2022/08/05 00:02:43;;;;;;;3.88;0.80;;;18.50;99.90;;;;;;5054702;28;20487;-82
2022/08/05 00:05:09;;;;;;;2.58;1.08;;;18.50;99.90;;;;;;5053134;28;20048;-82
2022/08/05 00:07:35;;;;;;;2.40;1.27;;;18.40;99.90;;;;;;5065712;28;20490;-82
2022/08/05 00:10:00;;;;;;;2.45;0.98;;;18.40;99.90;;;;;;5068017;28;20025;-82
2022/08/05 00:12:26;;;;;;;3.25;0.80;;;18.40;99.90;;;;;;5051806;28;20060;-83
2022/08/05 00:14:52;;;;;;;1.98;0.75;;;18.40;99.90;;;;;;5051715;28;20108;-82
2022/08/05 00:17:17;;;;;;;2.10;0.77;;;18.40;99.90;;;;;;5048182;28;20033;-82
2022/08/05 00:19:43;;;;;;;3.72;1.10;;;18.30;99.90;;;;;;5051751;28;20034;-82
2022/08/05 00:22:09;;;;;;;4.93;1.45;;;18.30;99.90;;;;;;5045771;28;20039;-83
2022/08/05 00:24:34;;;;;;;2.35;0.95;;;18.30;99.90;;;;;;5048008;28;20480;-82
2022/08/05 00:27:01;;;;;;;3.55;0.88;;;18.30;99.90;;;;;;5047042;28;20074;-82
2022/08/05 00:29:27;;;;;;;3.90;1.20;;;18.30;99.90;;;;;;5050908;28;20533;-82
2022/08/05 00:31:53;;;;;;;2.03;0.60;;;18.20;99.90;;;;;;5051833;28;20163;-82
2022/08/05 00:34:19;;;;;;;1.85;0.80;;;18.30;99.90;;;;;;5047435;28;20063;-81
2022/08/05 00:36:45;;;;;;;3.78;1.40;;;18.20;99.90;;;;;;5051692;28;20068;-83
2022/08/05 00:39:11;;;;;;;3.78;1.50;;;18.20;99.90;;;;;;5032198;28;20106;-82
2022/08/05 00:41:37;;;;;;;3.13;1.05;;;18.20;99.90;;;;;;5065578;28;20025;-81
2022/08/05 00:44:03;;;;;;;1.98;0.65;;;18.20;99.90;;;;;;5062159;28;20381;-81
2022/08/05 00:46:29;;;;;;;4.35;1.40;;;18.20;99.90;;;;;;5067487;28;20047;-81
2022/08/05 00:48:55;;;;;;;3.92;1.00;;;18.20;99.90;;;;;;5065326;28;20464;-82
2022/08/05 00:51:22;;;;;;;3.63;0.98;;;18.20;99.90;;;;;;5051420;28;20055;-82
2022/08/05 00:53:48;;;;;;;2.47;1.20;;;18.10;99.90;;;;;;5034836;28;20135;-82
2022/08/05 00:56:14;;;;;;;2.38;1.08;;;18.20;99.90;;;;;;5063781;28;20179;-82
2022/08/05 00:58:40;;;;;;;5.78;1.40;;;18.10;99.90;;;;;;5066113;28;20082;-82
2022/08/05 01:01:06;;;;;;;2.78;0.90;;;18.10;99.90;;;;;;5051360;28;20442;-82
2022/08/05 01:03:32;;;;;;;3.10;0.65;;;18.10;99.90;;;;;;5047972;28;20036;-82
2022/08/05 01:05:58;;;;;;;2.13;0.90;;;18.20;99.90;;;;;;5046957;28;20406;-82
2022/08/05 01:08:23;;;;;;;3.40;0.80;;;18.10;99.90;;;;;;5041876;28;20040;-82
2022/08/05 01:11:15;;;;;;;1.42;0.50;;;18.20;99.90;;;;;;5045042;28;20024;-82
2022/08/05 01:13:53;;;;;;;2.75;0.90;;;18.30;99.90;;;;;;5035952;28;20432;-82
2022/08/05 01:17:08;;;;;;;2.70;1.00;;;18.20;99.90;;;;;;5064015;28;20031;-82
2022/08/05 01:19:47;;;;;;;3.03;1.05;;;18.10;99.90;;;;;;5041538;28;20043;-82
2022/08/05 01:22:30;;;;;;;3.30;0.83;;;18.20;99.90;;;;;;5063195;28;20039;-81
2022/08/05 01:25:13;;;;;;;3.60;1.30;;;18.20;99.90;;;;;;5030104;28;20031;-82
2022/08/05 01:27:58;;;;;;;2.58;0.68;;;18.10;99.90;;;;;;5050067;28;20040;-82
2022/08/05 01:30:27;;;;;;;2.45;0.80;;;18.10;99.90;;;;;;5064428;28;20167;-82
2022/08/05 01:32:57;;;;;;;3.67;1.40;;;18.00;99.90;;;;;;5049306;28;20032;-82
2022/08/05 01:35:29;;;;;;;2.85;0.90;;;18.00;99.90;;;;;;5046820;28;20104;-82
2022/08/05 01:37:58;;;;;;;3.45;1.30;;;17.90;99.90;;;;;;5049356;28;20910;-81
2022/08/05 01:40:28;;;;;;;2.13;0.90;;;17.90;99.90;;;;;;5082260;28;20083;-82
2022/08/05 01:42:55;;;;;;;3.15;0.75;;;18.00;99.90;;;;;;5065358;28;20179;-82
2022/08/05 01:45:23;;;;;;;4.85;1.17;;;17.90;99.90;;;;;;5088753;28;20054;-82
2022/08/05 01:47:50;;;;;;;4.03;1.80;;;17.80;99.90;;;;;;5087820;28;20028;-82
2022/08/05 01:50:32;;;;;;;4.15;1.08;;;17.80;99.90;;;;;;5085916;28;20046;-82
2022/08/05 01:53:01;;;;;;;5.15;2.35;;;17.80;99.90;;;;;;5070462;28;20092;-82
2022/08/05 01:55:29;;;;;;;4.77;1.23;;;17.70;99.90;;;;;;5082383;28;20551;-82
2022/08/05 01:57:57;;;;;;;2.45;1.20;;;17.80;99.90;;;;;;5086838;28;20294;-81
2022/08/05 02:00:24;;;;;;;2.20;0.85;;;17.80;99.90;;;;;;5083218;28;20028;-82
2022/08/05 02:03:00;;;;;;;2.30;0.80;;;17.90;99.90;;;;;;5082243;28;20115;-81
2022/08/05 02:05:31;;;;;;;3.13;0.70;;;17.90;99.90;;;;;;5082647;28;20499;-82
2022/08/05 02:07:58;;;;;;;3.85;0.70;;;18.00;99.90;;;;;;5082431;28;20392;-82
2022/08/05 02:10:27;;;;;;;2.55;0.95;;;18.00;99.90;;;;;;5084186;28;20499;-81
2022/08/05 02:13:00;;;;;;;3.20;1.25;;;18.00;99.90;;;;;;5064135;28;20031;-81
2022/08/05 02:15:30;;;;;;;3.25;1.00;;;17.90;99.90;;;;;;5084492;28;20024;-82
2022/08/05 02:18:09;;;;;;;3.55;1.13;;;17.90;99.90;;;;;;5079446;28;20221;-82
2022/08/05 02:20:55;;;;;;;4.43;1.65;;;17.80;99.90;;;;;;5086453;28;20024;-82
2022/08/05 02:23:24;;;;;;;3.72;0.93;;;17.80;99.90;;;;;;5088135;28;20096;-82
2022/08/05 02:25:51;;;;;;;3.15;1.17;;;17.80;99.90;;;;;;5070440;28;20025;-81
2022/08/05 02:28:24;;;;;;;4.72;2.22;;;17.80;99.90;;;;;;5091738;28;20040;-81
2022/08/05 02:30:55;;;;;;;5.05;2.20;;;17.80;99.90;;;;;;5089127;28;20031;-82
2022/08/05 02:33:23;;;;;;;2.85;1.48;;;17.70;99.90;;;;;;5089368;28;20059;-81
2022/08/05 02:35:49;;;;;;;4.50;1.73;;;17.80;99.90;;;;;;5088860;28;20028;-81
2022/08/05 02:38:17;;;;;;;2.50;0.85;;;17.80;99.90;;;;;;5074809;28;20056;-82
2022/08/05 02:40:44;;;;;;;2.95;1.27;;;17.90;99.90;;;;;;5088983;28;20024;-82
2022/08/05 02:43:11;;;;;;;2.30;0.80;;;17.90;99.90;;;;;;5087456;28;20039;-81
2022/08/05 02:45:40;;;;;;;2.22;0.90;;;18.00;99.90;;;;;;5089724;28;20265;-82
2022/08/05 02:48:07;;;;;;;1.58;0.63;;;18.00;99.90;;;;;;5091539;28;20119;-82
2022/08/05 02:50:35;;;;;;;2.20;0.95;;;17.90;99.90;;;;;;5081290;28;20106;-81
2022/08/05 02:53:01;;;;;;;4.10;1.58;;;17.90;99.90;;;;;;5070079;28;20077;-81
2022/08/05 02:55:30;;;;;;;4.47;0.90;;;17.90;99.90;;;;;;5073645;28;20040;-82
2022/08/05 02:57:58;;;;;;;2.25;0.93;;;17.90;99.90;;;;;;5073627;28;20106;-82
2022/08/05 03:00:24;;;;;;;2.45;0.80;;;17.80;99.90;;;;;;5072671;28;20475;-82
2022/08/05 03:02:52;;;;;;;4.10;0.80;;;17.80;99.90;;;;;;5072218;28;20055;-82
2022/08/05 03:05:18;;;;;;;3.83;1.35;;;17.80;99.90;;;;;;5088266;28;20073;-82
2022/08/05 03:07:44;;;;;;;5.45;0.90;;;17.80;99.90;;;;;;5091417;28;20028;-83
2022/08/05 03:10:13;;;;;;;3.38;1.05;;;17.80;99.90;;;;;;5074082;28;20113;-82
2022/08/05 03:12:39;;;;;;;2.47;0.70;;;17.90;99.90;;;;;;5084246;28;20024;-82
2022/08/05 03:15:07;;;;;;;3.45;1.10;;;17.90;99.90;;;;;;5089273;28;20032;-81
2022/08/05 03:17:33;;;;;;;2.53;1.08;;;17.80;99.90;;;;;;5084911;28;20035;-81
2022/08/05 03:19:59;;;;;;;2.92;1.15;;;17.80;99.90;;;;;;5087939;28;20031;-82
2022/08/05 03:22:24;;;;;;;2.17;1.17;;;17.80;99.90;;;;;;5072423;28;20024;-82
2022/08/05 03:24:51;;;;;;;3.70;2.30;;;17.80;99.90;;;;;;5087139;28;20028;-82
2022/08/05 03:27:18;;;;;;;6.00;2.38;;;17.70;99.90;;;;;;5091684;28;20039;-82
2022/08/05 03:29:45;;;;;;;4.57;1.42;;;17.60;99.90;;;;;;5090860;28;20036;-83
2022/08/05 03:32:11;;;;;;;3.75;1.38;;;17.70;99.90;;;;;;5089576;28;20028;-82
2022/08/05 03:34:37;;;;;;;4.35;2.00;;;17.80;99.90;;;;;;5089722;28;20046;-82
2022/08/05 03:37:04;;;;;;;2.55;1.08;;;17.70;99.90;;;;;;5088611;28;20063;-82
2022/08/05 03:39:31;;;;;;;5.15;1.83;;;17.80;99.90;;;;;;5090192;28;20078;-82
2022/08/05 03:41:57;;;;;;;8.27;2.88;;;17.70;99.90;;;;;;5085957;28;20072;-82
2022/08/05 03:44:23;;;;;;;4.35;3.05;;;17.60;99.90;;;;;;5087504;28;20460;-82
2022/08/05 03:46:49;;;;;;;7.15;2.80;;;17.60;99.90;;;;;;5072117;28;20032;-82
2022/08/05 03:49:15;;;;;;;4.15;2.17;;;17.50;99.90;;;;;;5070496;28;20357;-82
2022/08/05 03:51:58;;;;;;;3.55;2.40;;;17.60;99.90;;;;;;5086810;28;20024;-82
2022/08/05 03:54:32;;;;;;;5.43;1.75;;;17.50;99.90;;;;;;5070799;28;20100;-82
2022/08/05 03:56:58;;;;;;;5.63;3.25;;;17.60;99.90;;;;;;5087831;28;20475;-82
2022/08/05 03:59:30;;;;;;;4.15;1.60;;;17.50;99.90;;;;;;5081097;28;20024;-82
2022/08/05 04:01:59;;;;;;;4.70;2.00;;;17.60;99.90;;;;;;5087905;28;20123;-82
2022/08/05 04:04:26;;;;;;;3.70;1.98;;;17.60;99.90;;;;;;5085226;28;20536;-82
2022/08/05 04:06:53;;;;;;;3.45;1.35;;;17.60;99.90;;;;;;5087229;28;20156;-82
2022/08/05 04:09:18;;;;;;;4.63;1.95;;;17.60;99.90;;;;;;5090546;28;20082;-82
2022/08/05 04:11:44;;;;;;;4.90;2.35;;;17.50;99.90;;;;;;5087222;28;20059;-82
2022/08/05 04:14:10;;;;;;;7.13;2.30;;;17.60;99.90;;;;;;5069368;28;20069;-82
2022/08/05 04:16:36;;;;;;;5.80;2.90;;;17.50;99.90;;;;;;5086636;28;20055;-82
2022/08/05 04:19:02;;;;;;;5.40;2.88;;;17.50;99.90;;;;;;5089651;28;20422;-81
2022/08/05 04:21:28;;;;;;;4.60;2.30;;;17.40;99.90;;;;;;5069478;28;20029;-82
2022/08/05 04:23:54;;;;;;;6.47;2.80;;;17.40;99.90;;;;;;5088818;28;20385;-82
2022/08/05 04:26:20;;;;;;;4.63;2.17;;;17.40;99.90;;;;;;5087779;28;20464;-82
2022/08/05 04:28:46;;;;;;;3.90;1.77;;;17.40;99.90;;;;;;5071483;28;20032;-81
2022/08/05 04:31:11;;;;;;;6.13;1.63;;;17.50;99.90;;;;;;5087020;28;20032;-82
2022/08/05 04:33:37;;;;;;;7.65;3.38;;;17.40;99.90;;;;;;5087431;28;20024;-82
2022/08/05 04:36:03;;;;;;;5.38;2.70;;;17.40;99.90;;;;;;5072470;28;20464;-82
2022/08/05 04:38:28;;;;;;;7.72;3.67;;;17.50;99.90;;;;;;5071962;28;20097;-81
2022/08/05 04:40:54;;;;;;;4.00;1.45;;;17.50;99.90;;;;;;5085073;28;20115;-82
2022/08/05 04:43:19;;;;;;;4.68;2.33;;;17.50;99.90;;;;;;5074628;28;20035;-82
2022/08/05 04:45:45;;;;;;;8.40;3.40;;;17.50;99.90;;;;;;5087019;28;20475;-82
2022/08/05 04:48:13;;;;;;;5.03;3.08;;;17.40;99.90;;;;;;5088589;28;20028;-82
2022/08/05 04:50:44;;;;;;;4.72;2.20;;;17.50;99.90;;;;;;5071840;28;20032;-82
2022/08/05 04:53:11;;;;;;;4.55;2.03;;;17.50;99.90;;;;;;5089216;28;20039;-82
2022/08/05 04:55:38;;;;;;;4.90;2.17;;;17.50;99.90;;;;;;5070710;28;20587;-82
2022/08/05 04:58:05;;;;;;;4.38;2.10;;;17.50;99.90;;;;;;5082041;28;20024;-81
2022/08/05 05:00:35;;;;;;;4.50;1.98;;;17.40;99.90;;;;;;5087229;28;20036;-81
2022/08/05 05:03:02;;;;;;;3.50;1.70;;;17.50;99.90;;;;;;5086097;28;20079;-82
2022/08/05 05:05:29;;;;;;;3.35;1.52;;;17.50;99.90;;;;;;5085665;28;20016;-81
2022/08/05 05:08:03;;;;;;;4.80;2.45;;;17.50;99.90;;;;;;5072281;28;20119;-81
2022/08/05 05:10:31;;;;;;;4.63;1.27;;;17.50;99.90;;;;;;5091413;28;20119;-82
2022/08/05 05:12:57;;;;;;;6.22;2.75;;;17.50;99.90;;;;;;5086684;28;20028;-81
2022/08/05 05:15:22;;;;;;;4.63;2.15;;;17.50;99.90;;;;;;5088997;28;20012;-82
2022/08/05 05:17:48;;;;;;;5.28;3.50;;;17.50;99.90;;;;;;5084675;28;20024;-82
2022/08/05 05:20:14;;;;;;;4.30;1.60;;;17.60;99.90;;;;;;5084319;28;20036;-82
2022/08/05 05:22:40;;;;;;;4.90;1.50;;;17.60;99.90;;;;;;5086022;28;20064;-82
2022/08/05 05:25:07;;;;;;;5.53;4.05;;;17.60;99.90;;;;;;5069953;28;20024;-82
2022/08/05 05:27:34;;;;;;;6.05;2.90;;;17.60;99.90;;;;;;5086695;28;20039;-81
2022/08/05 05:30:00;;;;;;;5.13;3.45;;;17.60;99.90;;;;;;5069385;28;20056;-81
2022/08/05 05:32:26;;;;;;;3.70;2.50;;;17.60;99.90;;;;;;5083661;28;20107;-81
2022/08/05 05:34:52;;;;;;;3.38;1.80;;;17.60;99.90;;;;;;5083756;28;20111;-81
2022/08/05 05:37:17;;;;;;;4.10;1.13;;;17.70;99.90;;;;;;5083219;28;20671;-81
2022/08/05 05:39:43;;;;;;;3.75;1.38;;;17.80;99.90;;;;;;5063649;28;20254;-81
2022/08/05 05:42:09;;;;;;;2.78;1.15;;;17.80;99.90;;;;;;5079051;28;20067;-81
2022/08/05 05:44:34;;;;;;;3.67;1.10;;;17.90;99.90;;;;;;5081682;28;20043;-81
2022/08/05 05:47:00;;;;;;;2.63;0.98;;;17.90;99.90;;;;;;5083270;28;20028;-81
2022/08/05 05:49:26;;;;;;;3.58;1.45;;;18.00;99.90;;;;;;5081735;28;20468;-81
2022/08/05 05:51:53;;;;;;;4.13;1.60;;;18.00;99.90;;;;;;5079254;28;20020;-81
2022/08/05 05:54:18;;;;;;;1.48;0.90;;;18.00;99.90;;;;;;5084027;28;20035;-81
2022/08/05 05:56:44;;;;;;;4.53;2.50;;;18.00;99.90;;;;;;5087054;28;20024;-81
2022/08/05 05:59:10;;;;;;;4.72;2.72;;;17.90;99.90;;;;;;5083851;28;20028;-81
2022/08/05 06:01:38;;;;;;;6.93;2.85;;;17.80;99.90;;;;;;5076776;28;20130;-80
2022/08/05 06:04:08;;;;;;;3.03;1.42;;;17.80;99.90;;;;;;5066934;28;20043;-81
2022/08/05 06:06:34;;;;;;;4.78;2.88;;;17.80;99.90;;;;;;5084594;28;20028;-81
2022/08/05 06:09:00;;;;;;;5.32;3.03;;;17.80;99.90;;;;;;5083578;28;20276;-81
2022/08/05 06:11:26;;;;;;;2.80;0.90;;;17.80;99.90;;;;;;5068988;28;20033;-81
2022/08/05 06:13:51;;;;;;;4.25;1.83;;;17.80;99.90;;;;;;5087641;28;20028;-81
2022/08/05 06:16:17;;;;;;;4.50;2.17;;;17.80;99.90;;;;;;5086362;28;20049;-81
2022/08/05 06:18:43;;;;;;;3.80;1.65;;;17.80;99.90;;;;;;5084277;28;20026;-81
2022/08/05 06:21:08;;;;;;;3.85;2.15;;;17.80;99.90;;;;;;5065243;28;20051;-81
2022/08/05 06:23:34;;;;;;;5.63;2.15;;;17.80;99.90;;;;;;5077145;28;20031;-81
2022/08/05 06:25:59;;;;;;;2.33;1.20;;;17.80;99.90;;;;;;5082320;28;20103;-81
2022/08/05 06:28:25;;;;;;;1.63;1.00;;;17.90;99.90;;;;;;5081629;28;20032;-80
2022/08/05 06:30:51;;;;;;;2.78;0.95;;;17.90;99.90;;;;;;5049779;28;20135;-81
2022/08/05 06:33:16;;;;;;;3.40;1.63;;;17.90;99.90;;;;;;5078719;28;20116;-80
2022/08/05 06:35:42;;;;;;;3.15;1.65;;;17.90;99.90;;;;;;5053663;28;20034;-81
2022/08/05 06:38:08;;;;;;;2.85;0.80;;;17.90;99.90;;;;;;5076631;28;20139;-81
2022/08/05 06:40:33;;;;;;;2.97;1.30;;;18.00;99.90;;;;;;5065287;28;20032;-80
2022/08/05 06:42:59;;;;;;;6.00;1.70;;;18.00;99.90;;;;;;5081745;28;20081;-81
2022/08/05 06:45:24;;;;;;;5.82;3.15;;;18.00;99.90;;;;;;5081326;28;20020;-81
2022/08/05 06:47:50;;;;;;;4.03;2.60;;;18.00;99.90;;;;;;5076825;28;20024;-80
2022/08/05 06:50:16;;;;;;;3.08;1.95;;;18.10;99.90;;;;;;5061975;28;20147;-80
2022/08/05 06:52:41;;;;;;;1.98;1.30;;;18.10;99.90;;;;;;5064661;28;20028;-80
2022/08/05 06:55:07;;;;;;;4.22;1.77;;;18.10;99.90;;;;;;5082968;28;20436;-81
2022/08/05 06:57:33;;;;;;;2.65;1.85;;;18.10;99.90;;;;;;5082353;28;20024;-80
2022/08/05 06:59:58;;;;;;;6.10;2.17;;;18.10;99.90;;;;;;5064003;28;20064;-80
2022/08/05 07:02:24;;;;;;;4.50;1.70;;;18.00;99.90;;;;;;5081787;28;20028;-80
2022/08/05 07:04:50;;;;;;;5.18;1.90;;;18.10;99.90;;;;;;5073306;28;20020;-80
2022/08/05 07:07:15;;;;;;;2.85;1.23;;;18.20;99.90;;;;;;5063797;28;20138;-80
2022/08/05 07:09:41;;;;;;;5.60;2.15;;;18.20;99.90;;;;;;5095459;28;20106;-80
2022/08/05 07:12:07;;;;;;;2.80;1.05;;;18.20;99.90;;;;;;5082819;28;20062;-81
2022/08/05 07:17:17;;;;;;;2.80;1.00;;;18.30;99.90;;;;;;5085934;28;20054;-80
2022/08/05 07:19:42;;;;;;;5.00;1.17;;;18.40;99.90;;;;;;5069311;28;20056;-81
2022/08/05 07:22:08;;;;;;;4.93;1.75;;;18.30;99.90;;;;;;5083453;28;20484;-80
2022/08/05 07:24:34;;;;;;;2.88;1.05;;;18.20;99.90;;;;;;5082990;28;20031;-81
2022/08/05 07:26:59;;;;;;;5.97;1.85;;;18.30;99.90;;;;;;5082883;28;20101;-81
2022/08/05 07:29:25;;;;;;;7.78;3.10;;;18.30;99.90;;;;;;5080539;28;20036;-81
2022/08/05 07:31:50;;;;;;;5.50;1.75;;;18.20;99.90;;;;;;5059221;28;20044;-81
2022/08/05 07:34:16;;;;;;;5.47;2.60;;;18.20;99.90;;;;;;5068427;28;20525;-81
2022/08/05 07:36:42;;;;;;;3.70;1.67;;;18.20;99.90;;;;;;5083132;28;20024;-81
2022/08/05 07:39:08;;;;;;;3.70;1.20;;;18.30;99.90;;;;;;5067179;28;20048;-81
2022/08/05 07:41:34;;;;;;;3.97;1.20;;;18.40;99.90;;;;;;5081167;28;20479;-82
2022/08/05 07:44:01;;;;;;;2.63;1.02;;;18.40;99.90;;;;;;5078797;28;20492;-81
2022/08/05 07:46:29;;;;;;;3.63;0.70;;;18.40;99.90;;;;;;5078501;28;20035;-81
2022/08/05 07:48:57;;;;;;;4.60;1.10;;;18.50;99.90;;;;;;5072740;28;20021;-81
2022/08/05 07:51:23;;;;;;;3.28;1.13;;;18.50;99.90;;;;;;5057612;28;20123;-81
2022/08/05 07:53:49;;;;;;;5.93;1.05;;;18.60;99.90;;;;;;5077717;28;20106;-81
2022/08/05 07:56:15;;;;;;;3.75;0.90;;;18.80;99.90;;;;;;5069551;28;20118;-81
2022/08/05 07:58:40;;;;;;;4.85;1.30;;;18.90;99.90;;;;;;5082913;28;20043;-81
2022/08/05 08:01:06;;;;;;;4.45;1.40;;;18.80;99.90;;;;;;5076891;28;20403;-81
2022/08/05 08:03:32;;;;;;;3.08;1.00;;;18.80;99.90;;;;;;5073058;28;20028;-81
2022/08/05 08:05:57;;;;;;;4.93;1.67;;;18.90;99.90;;;;;;5078711;28;20043;-81
2022/08/05 08:08:23;;;;;;;4.32;1.30;;;18.90;99.90;;;;;;5062412;28;20097;-82
2022/08/05 08:10:49;;;;;;;4.75;1.33;;;19.00;99.90;;;;;;5078004;28;20706;-83
2022/08/05 08:13:14;;;;;;;6.47;1.73;;;19.00;99.90;;;;;;5065944;28;20040;-82
2022/08/05 08:15:40;;;;;;;3.25;0.90;;;19.00;99.90;;;;;;5064043;28;20029;-81
2022/08/05 08:18:06;;;;;;;4.93;1.40;;;19.00;99.90;;;;;;5067185;28;20043;-82
2022/08/05 08:20:31;;;;;;;2.85;0.70;;;19.10;99.90;;;;;;5069604;28;20103;-81
2022/08/05 08:22:58;;;;;;;3.35;0.77;;;19.20;99.90;;;;;;5081894;28;20410;-82
2022/08/05 08:25:25;;;;;;;2.80;0.90;;;19.40;99.90;;;;;;5067940;28;20028;-82
2022/08/05 08:27:51;;;;;;;4.05;1.05;;;19.30;99.90;;;;;;5066378;28;20024;-81
2022/08/05 08:30:17;;;;;;;2.10;0.68;;;19.20;99.90;;;;;;5078664;28;20139;-81
2022/08/05 08:32:43;;;;;;;1.60;0.70;;;19.20;99.90;;;;;;5076573;28;20032;-82
2022/08/05 08:35:09;;;;;;;3.67;0.70;;;19.30;99.90;;;;;;5080840;28;20097;-82
2022/08/05 08:37:34;;;;;;;2.03;0.50;;;19.40;99.90;;;;;;5078529;28;20151;-81
2022/08/05 08:40:00;;;;;;;3.50;0.50;;;19.80;99.90;;;;;;5066863;28;20136;-82
2022/08/05 08:42:27;;;;;;;1.60;0.52;;;19.70;99.90;;;;;;5082204;28;20166;-82
2022/08/05 08:44:54;;;;;;;3.53;0.88;;;19.40;99.90;;;;;;5072542;28;20028;-83
2022/08/05 08:47:24;;;;;;;5.50;0.70;;;19.50;99.90;;;;;;5077734;28;20024;-82
2022/08/05 08:49:55;;;;;;;2.13;0.50;;;19.30;99.90;;;;;;5079982;28;20375;-83
2022/08/05 08:52:28;;;;;;;3.58;0.45;;;19.30;99.90;;;;;;5091894;28;20639;-82
2022/08/05 08:54:53;;;;;;;2.65;0.40;;;19.50;99.90;;;;;;5076278;28;20033;-82
2022/08/05 08:57:20;;;;;;;2.17;0.40;;;19.60;99.90;;;;;;5055319;28;20596;-84
2022/08/05 08:59:46;;;;;;;2.28;0.30;;;19.60;99.90;;;;;;5080158;28;20028;-84
2022/08/05 09:02:13;;;;;;;3.50;0.50;;;19.70;99.90;;;;;;5055880;28;20097;-82
2022/08/05 09:04:39;;;;;;;1.73;0.30;;;19.80;99.90;;;;;;5058427;28;20031;-82
2022/08/05 09:07:06;;;;;;;1.95;0.30;;;20.10;99.90;;;;;;5066236;28;20028;-82
2022/08/05 09:09:33;;;;;;;0.82;0.25;;;20.10;99.90;;;;;;5066929;28;20024;-81
2022/08/05 09:11:59;;;;;;;2.15;0.20;;;20.30;99.90;;;;;;5051272;28;20114;-82
2022/08/05 09:14:25;;;;;;;0.90;0.20;;;20.10;99.90;;;;;;5075242;28;20028;-83
2022/08/05 09:16:51;;;;;;;2.80;0.20;;;20.20;99.90;;;;;;5061870;28;20369;-81
2022/08/05 09:19:17;;;;;;;1.42;0.20;;;20.20;99.90;;;;;;5076226;28;20085;-83
2022/08/05 09:21:42;;;;;;;1.65;0.20;;;20.60;99.90;;;;;;5076122;28;20044;-82
2022/08/05 09:24:11;;;;;;;1.65;0.20;;;20.70;99.90;;;;;;5057813;28;20052;-81
2022/08/05 09:26:38;;;;;;;2.47;0.20;;;20.80;99.90;;;;;;5074140;28;20024;-83
2022/08/05 09:29:07;;;;;;;2.05;0.22;;;20.60;99.90;;;;;;5083353;28;20059;-81
2022/08/05 09:31:33;;;;;;;1.02;0.20;;;20.90;99.90;;;;;;5072605;28;20031;-82
2022/08/05 09:34:08;;;;;;;0.93;0.30;;;20.70;99.90;;;;;;5064088;28;20039;-82
2022/08/05 09:36:40;;;;;;;0.52;0.20;;;20.50;99.90;;;;;;5056470;28;20044;-81
2022/08/05 09:39:08;;;;;;;1.67;0.20;;;20.40;99.90;;;;;;5062018;28;20110;-82
2022/08/05 09:41:52;;;;;;;1.10;0.20;;;20.20;99.90;;;;;;5056555;28;20036;-82
2022/08/05 09:44:38;;;;;;;0.80;0.20;;;20.10;99.90;;;;;;5061872;28;20060;-81
2022/08/05 09:47:11;;;;;;;2.50;0.20;;;20.10;99.90;;;;;;5077498;28;20039;-82
2022/08/05 09:49:44;;;;;;;0.68;0.20;;;19.90;99.90;;;;;;5077940;28;20024;-82
2022/08/05 09:52:25;;;;;;;0.70;0.20;;;19.90;99.90;;;;;;5054758;28;20031;-83
2022/08/05 09:55:08;;;;;;;2.45;0.10;;;19.70;99.90;;;;;;5065353;28;20028;-80
2022/08/05 09:57:44;;;;;;;0.80;0.10;;;19.80;99.90;;;;;;5060324;28;20032;-84
2022/08/05 10:00:15;;;;;;;0.20;0.10;;;19.80;99.90;;;;;;5069090;28;20036;-82
2022/08/05 10:02:54;;;;;;;2.03;0.20;;;19.90;99.90;;;;;;5056930;28;20035;-81
2022/08/05 10:05:25;;;;;;;1.67;0.10;;;19.90;99.90;;;;;;5092414;28;20544;-82
2022/08/05 10:07:59;;;;;;;0.70;0.10;;;20.20;99.90;;;;;;5073235;28;20056;-81
2022/08/05 10:10:30;;;;;;;0.85;0.10;;;21.10;99.90;;;;;;5063535;28;20380;-82
2022/08/05 10:12:58;;;;;;;1.48;0.10;;;21.40;99.90;;;;;;5068873;28;20032;-82
2022/08/05 10:15:27;;;;;;;0.95;0.35;;;21.40;99.90;;;;;;5069425;28;20545;-84
2022/08/05 10:18:12;;;;;;;0.63;0.10;;;22.00;99.90;;;;;;5062072;28;20131;-85
2022/08/05 10:20:48;;;;;;;0.77;0.10;;;22.10;99.90;;;;;;5063606;28;20297;-83
2022/08/05 10:23:26;;;;;;;0.55;0.10;;;22.80;99.90;;;;;;5058541;28;20522;-82
2022/08/05 10:25:54;;;;;;;1.00;0.10;;;22.70;99.90;;;;;;5065220;28;20377;-85
2022/08/05 10:28:19;;;;;;;1.08;0.10;;;22.70;99.90;;;;;;5076680;28;20057;-82
2022/08/05 10:30:45;;;;;;;1.05;0.10;;;23.10;99.90;;;;;;5068361;28;20020;-82
2022/08/05 10:33:11;;;;;;;0.20;0.03;;;23.70;99.90;;;;;;5074251;28;20035;-84
2022/08/05 10:35:37;;;;;;;0.40;0.10;;;23.20;99.90;;;;;;5072339;28;20464;-83
2022/08/05 10:38:04;;;;;;;1.20;0.10;;;22.50;99.90;;;;;;5050455;28;20048;-83
2022/08/05 10:40:50;;;;;;;0.55;0.10;;;22.20;99.90;;;;;;5051994;28;20037;-83
2022/08/05 10:43:27;;;;;;;0.68;0.03;;;21.70;99.90;;;;;;5053567;28;20044;-82
2022/08/05 10:46:02;;;;;;;0.90;0.03;;;21.30;99.90;;;;;;5056232;28;20487;-86
2022/08/05 10:48:42;;;;;;;0.30;0.08;;;21.20;99.90;;;;;;5071809;28;20066;-84
2022/08/05 10:51:14;;;;;;;0.30;0.00;;;21.30;99.90;;;;;;5061661;28;20020;-82
2022/08/05 10:53:54;;;;;;;1.10;0.10;;;22.00;99.90;;;;;;5061142;28;20163;-83
2022/08/05 10:56:42;;;;;;;0.38;0.00;;;22.10;99.90;;;;;;5066230;28;20036;-84
2022/08/05 10:59:08;;;;;;;0.47;0.00;;;21.90;99.90;;;;;;5068634;28;20029;-82
2022/08/05 11:01:35;;;;;;;0.90;0.00;;;21.80;99.90;;;;;;5078315;28;20028;-85
2022/08/05 11:04:05;;;;;;;1.08;0.00;;;22.00;99.90;;;;;;5056130;28;20055;-85
2022/08/05 11:06:32;;;;;;;0.77;0.00;;;22.10;99.90;;;;;;5057052;28;20040;-84
2022/08/05 11:09:20;;;;;;;0.40;0.00;;;21.80;99.90;;;;;;5054572;28;20059;-84
2022/08/05 11:11:50;;;;;;;0.93;0.00;;;21.90;99.90;;;;;;5074248;28;20032;-83
2022/08/05 11:14:35;;;;;;;2.05;0.15;;;21.80;99.90;;;;;;5075372;28;20070;-82
2022/08/05 11:17:23;;;;;;;0.10;0.00;;;21.70;99.90;;;;;;5078826;28;20494;-84
2022/08/05 11:19:49;;;;;;;1.08;0.10;;;21.80;99.90;;;;;;5083031;28;20061;-81
2022/08/05 11:22:47;;;;;;;1.83;0.08;;;22.40;99.90;;;;;;5081847;28;20345;-82
2022/08/05 11:25:42;;;;;;;0.38;0.00;;;22.70;99.90;;;;;;5078999;28;20154;-82
2022/08/05 11:28:08;;;;;;;2.33;0.10;;;22.80;99.90;;;;;;5089715;27;20115;-81
2022/08/05 11:30:56;;;;;;;0.77;0.00;;;22.10;99.90;;;;;;5072065;28;20115;-82
2022/08/05 11:33:26;;;;;;;0.38;0.00;;;22.00;99.90;;;;;;5071085;28;20101;-82
2022/08/05 11:36:17;;;;;;;0.73;0.00;;;22.40;99.90;;;;;;5071476;28;20032;-85
2022/08/05 11:38:43;;;;;;;0.40;0.00;;;22.60;99.90;;;;;;5061471;28;20059;-82
2022/08/05 11:41:15;;;;;;;1.17;0.00;;;22.70;99.90;;;;;;5077055;28;20036;-85
2022/08/05 11:44:02;;;;;;;0.25;0.00;;;22.80;99.90;;;;;;5079676;28;20380;-84
2022/08/05 11:46:37;;;;;;;0.08;0.00;;;23.00;99.90;;;;;;5073831;28;20039;-84
2022/08/05 11:49:05;;;;;;;0.22;0.00;;;22.40;99.90;;;;;;5074410;28;20047;-83
2022/08/05 11:51:31;;;;;;;0.30;0.00;;;22.50;99.90;;;;;;5074032;28;20084;-82
2022/08/05 11:53:57;;;;;;;0.35;0.00;;;22.60;99.90;;;;;;5072809;28;20039;-88
2022/08/05 11:56:23;;;;;;;0.30;0.00;;;22.40;99.90;;;;;;5053615;28;20036;-83
2022/08/05 11:58:51;;;;;;;1.25;0.00;;;22.30;99.90;;;;;;5058631;28;20028;-87
2022/08/05 12:01:19;;;;;;;0.20;0.00;;;22.20;99.90;;;;;;5071276;28;20122;-83
2022/08/05 12:03:54;;;;;;;0.50;0.00;;;22.30;99.90;;;;;;5077096;28;20041;-86
2022/08/05 12:06:27;;;;;;;0.50;0.00;;;22.60;99.90;;;;;;5072454;28;20054;-82
2022/08/05 12:08:55;;;;;;;0.43;0.00;;;22.70;99.90;;;;;;5066224;28;20075;-84
2022/08/05 12:11:27;;;;;;;0.60;0.00;;;22.40;99.90;;;;;;5055114;28;20214;-83
2022/08/05 12:14:01;;;;;;;3.08;0.10;;;22.20;99.90;;;;;;5071919;28;20024;-84
2022/08/05 12:16:38;;;;;;;0.30;0.00;;;22.10;99.90;;;;;;5072109;28;20028;-83
2022/08/05 12:19:05;;;;;;;0.88;0.00;;;22.00;99.90;;;;;;5061203;28;20032;-84
2022/08/05 12:21:34;;;;;;;0.38;0.00;;;22.20;99.90;;;;;;5056955;28;20256;-89
2022/08/05 12:24:04;;;;;;;0.55;0.10;;;22.30;99.90;;;;;;5056558;28;20381;-83
2022/08/05 12:26:34;;;;;;;0.63;0.00;;;22.30;99.90;;;;;;5071557;28;20059;-85
2022/08/05 12:29:00;;;;;;;2.20;0.00;;;22.20;99.90;;;;;;5055848;28;20079;-84
2022/08/05 12:31:26;;;;;;;1.63;0.10;;;22.30;99.90;;;;;;5072187;28;20490;-85
2022/08/05 12:33:53;;;;;;;1.45;0.00;;;22.00;99.90;;;;;;5072121;28;20056;-85
2022/08/05 12:36:20;;;;;;;1.02;0.00;;;22.10;99.90;;;;;;5066140;28;20089;-84
2022/08/05 12:38:46;;;;;;;0.47;0.05;;;22.10;99.90;;;;;;5061795;28;20048;-84
2022/08/05 12:41:13;;;;;;;1.08;0.10;;;22.20;99.90;;;;;;5070611;28;20388;-85
2022/08/05 12:43:52;;;;;;;0.40;0.00;;;22.20;99.90;;;;;;5071940;28;20043;-83
2022/08/05 12:46:26;;;;;;;0.57;0.00;;;22.40;99.90;;;;;;5069677;28;20049;-83
2022/08/05 12:49:12;;;;;;;0.43;0.00;;;22.20;99.90;;;;;;5077526;28;20028;-85
2022/08/05 12:51:52;;;;;;;0.60;0.00;;;22.30;99.90;;;;;;5058383;28;20048;-83
2022/08/05 12:54:23;;;;;;;2.35;0.10;;;22.60;99.90;;;;;;5070710;28;20425;-81
2022/08/05 12:56:53;;;;;;;1.55;0.00;;;22.90;99.90;;;;;;5053460;28;20093;-86
2022/08/05 12:59:24;;;;;;;;;;;22.10;99.90;;;;;;5070932;28;20040;-83